CUM weather

El Viso Airport
Campo Alegre, Huila Department, Colombia

Public forecast

Using degrees Celsius for public forecast. Weather courtesy of forecast.io.

Closest aviation weather report (METAR) to El Viso Airport

Closest report is Benito Salas Airport, 13.2 nm (24.4 km) N. Retrieved 2019/10/14 17:00 UTC (49 minutes ago):

SKNV 141700Z 21004KT 150V240 9999 FEW040 BKN120 30/16 A2993

Closest aviation forecast (TAF) to El Viso Airport

Closest forecast is Alfonso Bonilla Aragon International Airport, 79.5 nm (147.2 km) NW. Retrieved 2019/10/14 12:30 UTC (5 hours ago):

TAF SKCL 141030Z 1412/1512 VRB02KT 9999 SCT020 SCT150 TEMPO 1412/1413 8000 VCFG -RA SCT015 BECMG 1417/1419 32010KT TEMPO 1422/1424 7000 RA SCT018TCU BECMG 1500/1502 03004KT TEMPO 1509/1512 6000 DZ VCFG SCT013 TX30/1419Z TN19/1511Z